createdAt,value
2018-06-20T00:01:38.202Z,88.79
2018-06-20T00:04:13.644Z,88.04
2018-06-20T00:06:49.121Z,86.77
2018-06-20T00:09:24.854Z,87.82
2018-06-20T00:12:00.400Z,88.04
2018-06-20T00:14:35.684Z,88.11
2018-06-20T00:17:11.043Z,87.68
2018-06-20T00:19:46.555Z,86.88
2018-06-20T00:22:21.978Z,87.22
2018-06-20T00:24:57.630Z,87.71
2018-06-20T00:27:33.126Z,86.89
2018-06-20T00:30:08.778Z,86.81
2018-06-20T00:32:44.542Z,86.27
2018-06-20T00:35:20.114Z,87.07
2018-06-20T00:37:55.844Z,86.56
2018-06-20T00:40:31.232Z,87.26
2018-06-20T00:43:06.678Z,87.62
2018-06-20T00:45:42.166Z,88.52
2018-06-20T00:48:17.605Z,88.94
2018-06-20T00:50:53.159Z,89.02
2018-06-20T00:53:28.644Z,89.22
2018-06-20T00:56:15.118Z,89.71
2018-06-20T00:58:50.538Z,89.20
2018-06-20T01:01:25.984Z,89.36
2018-06-20T01:04:01.510Z,89.09
2018-06-20T01:06:37.033Z,89.78
2018-06-20T01:09:12.346Z,89.51
2018-06-20T01:11:47.918Z,89.90
2018-06-20T01:14:23.430Z,90.58
2018-06-20T01:16:58.858Z,89.84
2018-06-20T01:19:34.129Z,89.30
2018-06-20T01:22:09.611Z,89.72
2018-06-20T01:24:45.109Z,90.62
2018-06-20T01:27:20.478Z,91.63
2018-06-20T01:29:56.001Z,92.18
2018-06-20T01:32:31.469Z,91.81
2018-06-20T01:35:07.055Z,91.81
2018-06-20T01:37:42.679Z,92.29
2018-06-20T01:40:18.196Z,92.67
2018-06-20T01:42:53.816Z,93.07
2018-06-20T01:45:29.294Z,91.62
2018-06-20T01:48:04.690Z,91.58
2018-06-20T01:50:40.231Z,91.85
2018-06-20T01:53:15.784Z,91.48
2018-06-20T01:55:51.450Z,92.85
2018-06-20T01:58:27.049Z,93.36
2018-06-20T02:01:02.405Z,93.79
2018-06-20T02:03:38.082Z,94.33
2018-06-20T02:06:13.526Z,94.17
2018-06-20T02:08:51.422Z,94.21
2018-06-20T02:11:27.975Z,93.10
2018-06-20T02:14:03.435Z,92.10
2018-06-20T02:16:38.870Z,91.15
2018-06-20T02:19:14.426Z,91.89
2018-06-20T02:21:49.720Z,91.51
2018-06-20T02:24:25.196Z,91.73
2018-06-20T02:27:00.604Z,90.05
2018-06-20T02:29:36.067Z,89.80
2018-06-20T02:32:11.519Z,89.08
2018-06-20T02:34:47.431Z,88.85
2018-06-20T02:37:23.031Z,88.78
2018-06-20T02:39:59.317Z,87.96
2018-06-20T02:42:34.883Z,87.67
2018-06-20T02:45:10.294Z,87.76
2018-06-20T02:47:45.710Z,88.50
2018-06-20T02:50:21.186Z,87.58
2018-06-20T02:52:56.478Z,88.71
2018-06-20T02:55:31.922Z,88.97
2018-06-20T02:58:07.413Z,89.79
2018-06-20T03:00:42.881Z,89.91
2018-06-20T03:03:18.322Z,89.50
2018-06-20T03:05:53.802Z,89.49
2018-06-20T03:08:29.308Z,91.02
2018-06-20T03:11:05.410Z,91.35
2018-06-20T03:13:40.920Z,91.04
2018-06-20T03:16:16.398Z,91.75
2018-06-20T03:18:51.902Z,91.06
2018-06-20T03:21:27.510Z,90.34
2018-06-20T03:24:03.039Z,90.01
2018-06-20T03:26:38.498Z,90.01
2018-06-20T03:29:13.891Z,89.89
2018-06-20T03:31:49.447Z,88.87
2018-06-20T03:34:24.842Z,88.56
2018-06-20T03:37:00.444Z,88.35
2018-06-20T03:39:35.909Z,87.85
2018-06-20T03:42:11.533Z,87.65
2018-06-20T03:44:47.272Z,87.61
2018-06-20T03:47:22.694Z,87.03
2018-06-20T03:49:58.691Z,86.66
2018-06-20T03:52:35.077Z,86.04
2018-06-20T03:55:10.894Z,85.94
2018-06-20T03:57:41.447Z,84.69
2018-06-20T04:00:12.142Z,85.76
2018-06-20T04:02:43.296Z,85.32
2018-06-20T04:05:13.616Z,84.00
2018-06-20T04:07:43.769Z,83.63
2018-06-20T04:10:14.207Z,83.75
2018-06-20T04:12:49.841Z,83.29
2018-06-20T04:15:25.224Z,82.85
2018-06-20T04:18:00.624Z,82.22
2018-06-20T04:20:36.266Z,82.61
2018-06-20T04:23:11.715Z,81.80
2018-06-20T04:25:47.306Z,82.54
2018-06-20T04:28:22.851Z,81.94
2018-06-20T04:30:58.572Z,81.30
2018-06-20T04:33:35.022Z,80.86
2018-06-20T04:36:11.167Z,80.92
2018-06-20T04:38:46.601Z,79.51
2018-06-20T04:41:22.219Z,79.76
2018-06-20T04:43:57.798Z,77.75
2018-06-20T04:46:33.392Z,78.17
2018-06-20T04:49:09.075Z,78.36
2018-06-20T04:51:44.522Z,78.88
2018-06-20T04:54:20.031Z,77.23
2018-06-20T04:56:56.147Z,77.38
2018-06-20T04:59:31.866Z,77.12
2018-06-20T05:02:07.233Z,76.69
2018-06-20T05:04:42.763Z,75.37
2018-06-20T05:07:18.237Z,74.67
2018-06-20T05:09:53.652Z,73.93
2018-06-20T05:12:28.891Z,73.98
2018-06-20T05:15:04.395Z,74.32
2018-06-20T05:17:40.415Z,72.65
2018-06-20T05:20:15.711Z,73.53
2018-06-20T05:22:51.025Z,74.48
2018-06-20T05:25:26.690Z,73.81
2018-06-20T05:28:02.299Z,73.68
2018-06-20T05:30:38.077Z,72.20
2018-06-20T05:33:13.999Z,72.06
2018-06-20T05:35:49.589Z,72.44
2018-06-20T05:38:26.333Z,72.02
2018-06-20T05:41:03.441Z,70.31
2018-06-20T05:43:38.867Z,70.73
2018-06-20T05:46:14.157Z,69.30
2018-06-20T05:48:49.812Z,67.71
2018-06-20T05:51:25.215Z,67.75
2018-06-20T05:54:00.891Z,65.61
2018-06-20T05:56:36.391Z,65.97
2018-06-20T05:59:12.016Z,66.28
2018-06-20T06:01:47.500Z,66.49
2018-06-20T06:04:22.852Z,68.14
2018-06-20T06:06:58.551Z,66.51
2018-06-20T06:09:34.138Z,66.66
2018-06-20T06:12:09.725Z,66.80
2018-06-20T06:14:45.213Z,65.97
2018-06-20T06:17:20.771Z,64.58
2018-06-20T06:19:56.310Z,63.90
2018-06-20T06:22:31.934Z,64.44
2018-06-20T06:25:07.567Z,63.80
2018-06-20T06:27:43.334Z,63.40
2018-06-20T06:30:18.704Z,62.79
2018-06-20T06:32:54.077Z,60.95
2018-06-20T06:35:29.389Z,61.64
2018-06-20T06:38:04.771Z,60.81
2018-06-20T06:40:40.522Z,62.65
2018-06-20T06:43:16.025Z,60.59
2018-06-20T06:45:51.514Z,59.25
2018-06-20T06:48:27.010Z,59.91
2018-06-20T06:51:02.255Z,58.00
2018-06-20T06:53:37.590Z,58.94
2018-06-20T06:56:12.859Z,58.19
2018-06-20T06:58:48.237Z,58.27
2018-06-20T07:01:23.963Z,57.78
2018-06-20T07:03:59.463Z,57.53
2018-06-20T07:06:35.063Z,57.06
2018-06-20T07:09:10.568Z,55.00
2018-06-20T07:11:46.076Z,55.00
2018-06-20T07:14:21.628Z,53.76
2018-06-20T07:16:57.365Z,52.46
2018-06-20T07:19:32.702Z,51.80
2018-06-20T07:22:08.538Z,51.97
2018-06-20T07:24:44.195Z,50.48
2018-06-20T07:27:19.648Z,51.07
2018-06-20T07:29:55.285Z,51.85
2018-06-20T07:32:30.802Z,48.62
2018-06-20T07:35:06.282Z,48.94
2018-06-20T07:37:41.816Z,46.33
2018-06-20T07:40:17.321Z,45.99
2018-06-20T07:42:52.709Z,46.51
2018-06-20T07:45:28.276Z,44.64
2018-06-20T07:48:03.917Z,43.82
2018-06-20T07:50:39.549Z,43.66
2018-06-20T07:53:15.110Z,42.91
2018-06-20T07:55:50.456Z,43.28
2018-06-20T07:58:31.416Z,43.96
2018-06-20T08:01:12.045Z,43.79
2018-06-20T08:03:52.572Z,42.84
2018-06-20T08:06:33.120Z,42.05
2018-06-20T08:09:13.590Z,41.71
2018-06-20T08:11:54.266Z,40.54
2018-06-20T08:14:34.845Z,39.70
2018-06-20T08:17:15.490Z,37.68
2018-06-20T08:19:53.618Z,38.65
2018-06-20T08:22:29.328Z,38.92
2018-06-20T08:25:07.567Z,41.06
2018-06-20T08:27:43.919Z,38.92
2018-06-20T08:30:20.499Z,36.82
2018-06-20T08:32:56.488Z,36.05
2018-06-20T08:35:33.676Z,35.33
2018-06-20T08:38:10.037Z,34.03
2018-06-20T08:40:45.621Z,33.07
2018-06-20T08:43:21.716Z,34.41
2018-06-20T08:45:58.379Z,35.09
2018-06-20T08:48:34.654Z,33.72
2018-06-20T08:51:10.745Z,34.26
2018-06-20T08:53:46.757Z,34.98
2018-06-20T08:56:23.461Z,38.25
2018-06-20T08:59:00.391Z,37.56
2018-06-20T09:04:45.193Z,37.78
2018-06-20T09:09:33.217Z,39.94
2018-06-20T09:12:15.267Z,38.93
2018-06-20T09:14:56.131Z,36.19
2018-06-20T09:17:38.613Z,33.61
2018-06-20T09:20:14.671Z,31.77
2018-06-20T09:22:50.791Z,31.87
2018-06-20T09:25:26.179Z,30.51
2018-06-20T09:28:02.196Z,30.55
2018-06-20T09:30:38.521Z,29.36
2018-06-20T09:33:14.111Z,28.26
2018-06-20T09:35:50.522Z,27.13
2018-06-20T09:38:26.360Z,29.10
2018-06-20T09:41:01.818Z,27.31
2018-06-20T09:43:37.538Z,26.95
2018-06-20T09:46:14.093Z,28.22
2018-06-20T09:48:49.587Z,25.59
2018-06-20T09:51:25.178Z,24.72
2018-06-20T09:54:00.612Z,23.09
2018-06-20T09:56:36.472Z,27.39
2018-06-20T09:59:17.276Z,28.96
2018-06-20T10:01:58.890Z,28.57
2018-06-20T10:04:39.457Z,29.41
2018-06-20T10:07:19.927Z,27.60
2018-06-20T10:12:07.660Z,25.06
2018-06-20T10:14:43.558Z,23.98
2018-06-20T10:17:19.232Z,24.04
2018-06-20T10:19:55.971Z,23.14
2018-06-20T10:22:32.744Z,25.59
2018-06-20T10:25:09.351Z,22.46
2018-06-20T10:27:45.574Z,23.23
2018-06-20T10:30:25.484Z,26.49
2018-06-20T10:33:02.372Z,24.59
2018-06-20T10:35:38.118Z,24.43
2018-06-20T10:38:13.474Z,25.08
2018-06-20T10:40:56.258Z,26.01
2018-06-20T10:43:32.411Z,28.21
2018-06-20T10:46:13.452Z,27.56
2018-06-20T10:48:49.782Z,26.22
2018-06-20T10:51:25.455Z,23.05
2018-06-20T10:54:04.802Z,23.67
2018-06-20T10:56:45.416Z,20.96
2018-06-20T10:59:27.179Z,23.25
2018-06-20T11:02:08.270Z,21.47
2018-06-20T11:04:51.104Z,22.20
2018-06-20T11:07:32.199Z,22.71
2018-06-20T11:10:13.662Z,21.38
2018-06-20T11:13:26.648Z,21.80
2018-06-20T11:16:06.745Z,22.08
2018-06-20T11:18:56.630Z,20.73
2018-06-20T11:21:36.135Z,20.24
2018-06-20T11:24:13.234Z,23.20
2018-06-20T11:26:49.587Z,20.51
2018-06-20T11:29:26.762Z,20.57
2018-06-20T11:32:02.750Z,19.92
2018-06-20T11:34:50.266Z,19.41
2018-06-20T11:37:27.898Z,20.67
2018-06-20T11:40:03.470Z,18.38
2018-06-20T11:42:40.596Z,18.20
2018-06-20T11:45:16.621Z,19.14
2018-06-20T11:47:52.491Z,21.56
2018-06-20T11:50:28.403Z,20.58
2018-06-20T11:53:07.885Z,25.82
2018-06-20T11:55:47.399Z,27.55
2018-06-20T11:58:31.849Z,28.74
2018-06-20T12:01:13.493Z,25.34
2018-06-20T12:03:54.378Z,22.11
2018-06-20T12:06:35.041Z,19.46
2018-06-20T12:09:15.771Z,18.32
2018-06-20T12:11:56.955Z,18.86
2018-06-20T12:14:38.034Z,20.28
2018-06-20T12:17:13.473Z,19.75
2018-06-20T12:19:55.526Z,18.94
2018-06-20T12:22:36.387Z,18.39
2018-06-20T12:25:18.200Z,18.87
2018-06-20T12:27:58.942Z,19.93
2018-06-20T12:30:39.674Z,19.03
2018-06-20T12:33:20.951Z,18.03
2018-06-20T12:36:01.615Z,16.88
2018-06-20T12:38:43.608Z,16.20
2018-06-20T12:41:25.827Z,18.89
2018-06-20T12:44:08.105Z,18.12
2018-06-20T12:47:17.828Z,17.92
2018-06-20T12:50:02.891Z,18.30
2018-06-20T12:52:52.341Z,20.40
2018-06-20T12:55:37.026Z,19.99
2018-06-20T12:58:13.030Z,18.18
2018-06-20T13:00:49.046Z,21.53
2018-06-20T13:03:25.110Z,25.00
2018-06-20T13:06:01.914Z,22.34
2018-06-20T13:08:38.953Z,20.77
2018-06-20T13:11:14.646Z,26.06
2018-06-20T13:13:50.583Z,27.41
2018-06-20T13:16:27.325Z,28.42
2018-06-20T13:19:03.156Z,26.35
2018-06-20T13:21:39.400Z,20.59
2018-06-20T13:24:15.083Z,16.54
2018-06-20T13:26:50.688Z,16.59
2018-06-20T13:29:26.374Z,17.87
2018-06-20T13:32:07.912Z,19.37
2018-06-20T13:34:48.563Z,19.36
2018-06-20T13:37:29.035Z,23.30
2018-06-20T13:40:11.001Z,27.31
2018-06-20T13:42:56.517Z,24.80
2018-06-20T13:45:37.987Z,20.56
2018-06-20T13:48:20.073Z,17.21
2018-06-20T13:50:56.541Z,15.54
2018-06-20T13:53:33.337Z,16.83
2018-06-20T13:56:10.457Z,17.04
2018-06-20T13:58:46.109Z,17.79
2018-06-20T14:01:23.273Z,19.22
2018-06-20T14:03:58.973Z,23.52
2018-06-20T14:06:34.569Z,26.03
2018-06-20T14:09:11.929Z,21.90
2018-06-20T14:11:47.652Z,18.05
2018-06-20T14:14:26.176Z,17.73
2018-06-20T14:17:03.186Z,18.28
2018-06-20T14:19:44.109Z,17.71
2018-06-20T14:22:19.920Z,17.99
2018-06-20T14:24:56.033Z,19.43
2018-06-20T14:27:33.908Z,18.28
2018-06-20T14:30:09.581Z,19.62
2018-06-20T14:32:50.355Z,19.29
2018-06-20T14:35:31.308Z,17.79
2018-06-20T14:38:12.000Z,18.85
2018-06-20T14:40:53.397Z,18.23
2018-06-20T14:43:34.080Z,18.73
2018-06-20T14:46:15.300Z,16.74
2018-06-20T14:48:52.400Z,16.41
2018-06-20T14:51:28.794Z,19.33
2018-06-20T14:54:04.424Z,17.41
2018-06-20T14:56:40.976Z,17.02
2018-06-20T14:59:17.543Z,17.36
2018-06-20T15:01:53.842Z,16.41
2018-06-20T15:04:30.184Z,16.42
2018-06-20T15:07:07.111Z,15.94
2018-06-20T15:09:42.822Z,17.24
2018-06-20T15:12:19.118Z,17.40
2018-06-20T15:14:54.766Z,17.25
2018-06-20T15:17:31.390Z,16.21
2018-06-20T15:20:08.112Z,18.60
2018-06-20T15:22:47.988Z,21.24
2018-06-20T15:25:28.940Z,19.14
2018-06-20T15:28:10.626Z,20.36
2018-06-20T15:30:51.315Z,20.75
2018-06-20T15:33:32.486Z,19.13
2018-06-20T15:36:13.567Z,18.62
2018-06-20T15:38:50.078Z,17.60
2018-06-20T15:41:26.204Z,15.80
2018-06-20T15:44:02.549Z,17.40
2018-06-20T15:46:39.754Z,19.74
2018-06-20T15:49:15.880Z,20.40
2018-06-20T15:51:51.839Z,18.98
2018-06-20T15:54:28.522Z,19.38
2018-06-20T15:57:05.736Z,18.18
2018-06-20T15:59:42.408Z,17.24
2018-06-20T16:02:19.451Z,17.31
2018-06-20T16:04:55.211Z,18.08
2018-06-20T16:07:31.453Z,19.09
2018-06-20T16:10:10.937Z,19.53
2018-06-20T16:12:49.625Z,19.00
2018-06-20T16:15:25.913Z,18.79
2018-06-20T16:18:04.506Z,18.54
2018-06-20T16:20:47.367Z,18.13
2018-06-20T16:23:28.931Z,18.18
2018-06-20T16:26:10.792Z,19.88
2018-06-20T16:28:51.951Z,20.24
2018-06-20T16:31:27.433Z,20.51
2018-06-20T16:34:02.959Z,21.17
2018-06-20T16:36:38.567Z,20.96
2018-06-20T16:39:15.466Z,23.42
2018-06-20T16:41:53.065Z,21.65
2018-06-20T16:44:29.151Z,20.91
2018-06-20T16:47:05.145Z,23.06
2018-06-20T16:49:41.643Z,23.31
2018-06-20T16:52:17.514Z,23.97
2018-06-20T16:54:54.303Z,24.09
2018-06-20T16:57:31.001Z,25.00
2018-06-20T17:00:11.819Z,23.93
2018-06-20T17:02:48.007Z,22.71
2018-06-20T17:05:28.349Z,23.29
2018-06-20T17:08:04.127Z,24.49
2018-06-20T17:10:40.508Z,25.99
2018-06-20T17:13:22.412Z,27.48
2018-06-20T17:16:03.779Z,28.74
2018-06-20T17:18:46.943Z,30.18
2018-06-20T17:21:27.920Z,32.24
2018-06-20T17:24:09.124Z,33.08
2018-06-20T17:26:45.211Z,33.69
2018-06-20T17:29:22.041Z,33.82
2018-06-20T17:31:59.110Z,34.57
2018-06-20T17:34:36.109Z,35.45
2018-06-20T17:37:12.315Z,34.68
2018-06-20T17:39:49.709Z,34.78
2018-06-20T17:42:29.439Z,35.03
2018-06-20T17:45:07.788Z,34.57
2018-06-20T17:47:43.654Z,35.69
2018-06-20T17:50:20.153Z,35.37
2018-06-20T17:52:56.829Z,36.29
2018-06-20T17:55:32.706Z,36.17
2018-06-20T17:58:10.049Z,36.18
2018-06-20T18:00:51.340Z,37.07
2018-06-20T18:03:29.660Z,36.54
2018-06-20T18:06:10.585Z,37.75
2018-06-20T18:08:51.801Z,38.09
2018-06-20T18:11:32.409Z,38.61
2018-06-20T18:14:13.459Z,39.27
2018-06-20T18:16:55.088Z,39.49
2018-06-20T18:19:30.859Z,38.91
2018-06-20T18:22:07.928Z,39.84
2018-06-20T18:24:45.391Z,40.58
2018-06-20T18:27:25.022Z,40.10
2018-06-20T18:30:01.484Z,40.57
2018-06-20T18:32:38.510Z,41.68
2018-06-20T18:35:15.229Z,41.25
2018-06-20T18:37:55.712Z,41.50
2018-06-20T18:40:32.620Z,41.93
2018-06-20T18:43:08.409Z,42.42
2018-06-20T18:45:44.135Z,42.65
2018-06-20T18:48:25.447Z,43.41
2018-06-20T18:51:01.606Z,43.44
2018-06-20T18:53:37.368Z,44.44
2018-06-20T18:56:13.997Z,44.41
2018-06-20T18:58:55.620Z,45.23
2018-06-20T19:04:25.800Z,45.86
2018-06-20T19:07:06.502Z,46.16
2018-06-20T19:09:42.754Z,46.94
2018-06-20T19:12:18.858Z,47.46
2018-06-20T19:14:54.750Z,47.95
2018-06-20T19:17:31.339Z,48.22
2018-06-20T19:20:07.361Z,48.88
2018-06-20T19:22:44.203Z,49.18
2018-06-20T19:25:21.193Z,50.01
2018-06-20T19:27:56.613Z,50.60
2018-06-20T19:30:32.947Z,50.48
2018-06-20T19:33:08.892Z,50.58
2018-06-20T19:35:44.730Z,50.99
2018-06-20T19:38:21.094Z,51.60
2018-06-20T19:40:58.478Z,52.23
2018-06-20T19:43:34.074Z,52.75
2018-06-20T19:46:10.854Z,53.23
2018-06-20T19:48:47.698Z,53.93
2018-06-20T19:51:23.865Z,54.13
2018-06-20T19:54:00.547Z,55.20
2018-06-20T19:56:37.365Z,55.58
2018-06-20T19:59:14.236Z,56.63
2018-06-20T20:01:50.354Z,57.14
2018-06-20T20:04:25.984Z,57.42
2018-06-20T20:07:02.918Z,57.60
2018-06-20T20:09:39.656Z,56.72
2018-06-20T20:12:15.592Z,57.16
2018-06-20T20:14:51.332Z,57.39
2018-06-20T20:17:26.942Z,57.23
2018-06-20T20:20:02.686Z,58.59
2018-06-20T20:22:39.051Z,58.86
2018-06-20T20:25:14.687Z,58.61
2018-06-20T20:27:51.461Z,58.35
2018-06-20T20:30:28.535Z,58.89
2018-06-20T20:33:04.178Z,60.08
2018-06-20T20:35:40.489Z,60.40
2018-06-20T20:38:18.185Z,59.23
2018-06-20T20:40:54.238Z,60.03
2018-06-20T20:43:30.379Z,59.88
2018-06-20T20:46:07.930Z,58.96
2018-06-20T20:48:43.597Z,57.05
2018-06-20T20:51:22.548Z,56.68
2018-06-20T20:54:06.378Z,56.70
2018-06-20T20:56:43.834Z,56.71
2018-06-20T20:59:19.596Z,55.30
2018-06-20T21:01:55.849Z,55.77
2018-06-20T21:04:31.257Z,56.77
2018-06-20T21:07:07.624Z,57.27
2018-06-20T21:09:43.127Z,58.66
2018-06-20T21:12:18.561Z,59.54
2018-06-20T21:14:55.275Z,60.03
2018-06-20T21:17:33.218Z,60.54
2018-06-20T21:20:08.720Z,61.08
2018-06-20T21:22:44.214Z,61.99
2018-06-20T21:25:20.933Z,62.42
2018-06-20T21:27:56.458Z,63.38
2018-06-20T21:30:33.130Z,64.16
2018-06-20T21:33:09.785Z,64.11
2018-06-20T21:35:46.375Z,65.46
2018-06-20T21:38:21.977Z,65.92
2018-06-20T21:40:57.499Z,66.97
2018-06-20T21:43:34.499Z,66.86
2018-06-20T21:46:09.984Z,67.56
2018-06-20T21:48:45.621Z,67.89
2018-06-20T21:51:21.423Z,68.08
2018-06-20T21:53:56.921Z,69.01
2018-06-20T21:56:32.883Z,69.01
2018-06-20T21:59:09.464Z,68.75
2018-06-20T22:01:45.631Z,68.66
2018-06-20T22:04:21.219Z,68.46
2018-06-20T22:06:57.929Z,69.53
2018-06-20T22:09:34.445Z,70.48
2018-06-20T22:12:10.323Z,70.97
2018-06-20T22:14:45.995Z,70.73
2018-06-20T22:17:21.626Z,71.37
2018-06-20T22:19:58.724Z,71.55
2018-06-20T22:22:34.382Z,71.66
2018-06-20T22:25:10.756Z,71.92
2018-06-20T22:27:46.376Z,72.05
2018-06-20T22:30:23.045Z,72.30
2018-06-20T22:32:58.642Z,73.07
2018-06-20T22:35:35.252Z,74.19
2018-06-20T22:38:11.047Z,74.49
2018-06-20T22:40:46.540Z,74.43
2018-06-20T22:43:23.168Z,74.97
2018-06-20T22:45:58.485Z,74.82
2018-06-20T22:48:34.595Z,75.00
2018-06-20T22:51:10.278Z,74.19
2018-06-20T22:53:45.674Z,74.66
2018-06-20T22:56:21.350Z,75.30
2018-06-20T22:58:57.087Z,74.98
2018-06-20T23:01:34.436Z,75.77
2018-06-20T23:04:10.039Z,75.87
2018-06-20T23:06:45.953Z,75.79
2018-06-20T23:09:22.172Z,74.98
2018-06-20T23:11:58.268Z,75.94
2018-06-20T23:14:35.433Z,75.59
2018-06-20T23:17:11.897Z,75.49
2018-06-20T23:19:48.117Z,76.85
2018-06-20T23:22:23.653Z,76.55
2018-06-20T23:24:59.787Z,77.13
2018-06-20T23:27:35.737Z,76.77
2018-06-20T23:30:12.471Z,76.53
2018-06-20T23:32:48.956Z,76.72
2018-06-20T23:35:24.873Z,76.70
2018-06-20T23:38:00.917Z,77.03
2018-06-20T23:40:37.299Z,77.28
2018-06-20T23:43:13.025Z,78.10
2018-06-20T23:45:50.279Z,78.17
2018-06-20T23:48:27.349Z,77.46
2018-06-20T23:51:03.633Z,77.37
2018-06-20T23:53:41.475Z,78.20
2018-06-20T23:56:17.271Z,78.56
2018-06-20T23:58:52.859Z,78.54
